createdAt,value
2018-04-23T00:00:10.732Z,19.92
2018-04-23T00:01:20.544Z,19.87
2018-04-23T00:02:30.632Z,19.85
2018-04-23T00:03:40.454Z,19.85
2018-04-23T00:04:50.535Z,19.83
2018-04-23T00:06:00.617Z,19.79
2018-04-23T00:07:10.445Z,19.8
2018-04-23T00:08:20.520Z,19.8
2018-04-23T00:09:30.431Z,19.79
2018-04-23T00:10:40.523Z,19.72
2018-04-23T00:11:50.082Z,19.65
2018-04-23T00:12:59.903Z,19.64
2018-04-23T00:14:09.711Z,19.67
2018-04-23T00:15:19.574Z,19.68
2018-04-23T00:16:29.662Z,19.63
2018-04-23T00:17:39.474Z,19.61
2018-04-23T00:18:49.290Z,19.61
2018-04-23T00:19:59.397Z,19.56
2018-04-23T00:21:09.552Z,19.64
2018-04-23T00:22:19.367Z,19.5
2018-04-23T00:23:28.924Z,19.52
2018-04-23T00:24:39.059Z,19.43
2018-04-23T00:25:49.146Z,19.43
2018-04-23T00:26:59.277Z,19.45
2018-04-23T00:28:09.372Z,19.35
2018-04-23T00:29:19.447Z,19.45
2018-04-23T00:30:29.543Z,19.42
2018-04-23T00:31:39.650Z,19.32
2018-04-23T00:32:49.777Z,19.37
2018-04-23T00:33:59.855Z,19.35
2018-04-23T00:35:09.732Z,19.31
2018-04-23T00:36:19.548Z,19.27
2018-04-23T00:37:29.653Z,19.28
2018-04-23T00:38:39.783Z,19.28
2018-04-23T00:39:49.343Z,19.28
2018-04-23T00:40:59.418Z,19.28
2018-04-23T00:42:09.516Z,19.23
2018-04-23T00:43:19.600Z,19.24
2018-04-23T00:44:29.736Z,19.09
2018-04-23T00:45:39.819Z,19.1
2018-04-23T00:46:49.654Z,19.12
2018-04-23T00:47:59.474Z,19.06
2018-04-23T00:49:09.549Z,19.09
2018-04-23T00:50:19.688Z,19.1
2018-04-23T00:51:29.768Z,19.1
2018-04-23T00:52:39.853Z,19.13
2018-04-23T00:53:49.928Z,19.05
2018-04-23T00:55:00.000Z,18.96
2018-04-23T00:56:09.562Z,19.06
2018-04-23T00:57:19.651Z,19.05
2018-04-23T00:58:29.461Z,18.96
2018-04-23T00:59:39.548Z,18.94
2018-04-23T01:00:49.640Z,18.99
2018-04-23T01:01:59.726Z,18.96
2018-04-23T01:03:09.803Z,18.9
2018-04-23T01:04:19.895Z,18.9
2018-04-23T01:05:29.725Z,18.91
2018-04-23T01:06:39.796Z,18.91
2018-04-23T01:07:49.915Z,18.87
2018-04-23T01:09:00.000Z,18.81
2018-04-23T01:10:09.832Z,18.81
2018-04-23T01:11:19.914Z,18.89
2018-04-23T01:12:29.987Z,18.86
2018-04-23T01:13:40.060Z,18.87
2018-04-23T01:14:50.132Z,18.82
2018-04-23T01:16:00.211Z,18.82
2018-04-23T01:17:10.280Z,18.84
2018-04-23T01:18:20.356Z,18.87
2018-04-23T01:19:30.439Z,18.84
2018-04-23T01:20:40.239Z,18.84
2018-04-23T01:21:50.066Z,18.81
2018-04-23T01:23:00.165Z,18.84
2018-04-23T01:24:10.240Z,18.89
2018-04-23T01:25:20.336Z,18.81
2018-04-23T01:26:30.419Z,18.89
2018-04-23T01:27:40.512Z,18.86
2018-04-23T01:28:50.596Z,18.89
2018-04-23T01:30:00.415Z,18.84
2018-04-23T01:31:10.529Z,18.94
2018-04-23T01:32:20.609Z,18.82
2018-04-23T01:33:30.684Z,18.78
2018-04-23T01:34:40.758Z,18.75
2018-04-23T01:35:50.847Z,18.72
2018-04-23T01:37:00.928Z,18.75
2018-04-23T01:38:10.744Z,18.74
2018-04-23T01:39:20.576Z,18.72
2018-04-23T01:40:30.692Z,18.71
2018-04-23T01:41:40.834Z,18.71
2018-04-23T01:42:50.953Z,18.69
2018-04-23T01:44:00.765Z,18.69
2018-04-23T01:45:10.835Z,18.6
2018-04-23T01:46:20.650Z,18.68
2018-04-23T01:47:30.744Z,18.65
2018-04-23T01:48:40.814Z,18.66
2018-04-23T01:49:50.889Z,18.6
2018-04-23T01:51:00.699Z,18.59
2018-04-23T01:52:10.795Z,18.63
2018-04-23T01:53:20.877Z,18.57
2018-04-23T01:54:30.705Z,18.57
2018-04-23T01:55:40.822Z,18.61
2018-04-23T01:56:50.900Z,18.53
2018-04-23T01:58:00.980Z,18.6
2018-04-23T01:59:11.194Z,18.53
2018-04-23T02:00:21.159Z,18.57
2018-04-23T02:01:31.266Z,18.6
2018-04-23T02:02:41.356Z,18.54
2018-04-23T02:03:51.483Z,18.54
2018-04-23T02:05:01.300Z,18.45
2018-04-23T02:06:11.133Z,18.5
2018-04-23T02:07:21.214Z,18.6
2018-04-23T02:08:31.039Z,18.47
2018-04-23T02:09:41.119Z,18.49
2018-04-23T02:10:50.932Z,18.51
2018-04-23T02:12:01.055Z,18.47
2018-04-23T02:13:11.137Z,18.45
2018-04-23T02:14:21.232Z,18.56
2018-04-23T02:15:31.061Z,18.44
2018-04-23T02:16:41.128Z,18.42
2018-04-23T02:17:51.253Z,18.42
2018-04-23T02:19:01.358Z,18.47
2018-04-23T02:20:11.431Z,18.41
2018-04-23T02:21:20.995Z,18.45
2018-04-23T02:22:31.108Z,18.44
2018-04-23T02:23:41.182Z,18.45
2018-04-23T02:24:51.010Z,18.44
2018-04-23T02:26:01.093Z,18.42
2018-04-23T02:27:10.906Z,18.44
2018-04-23T02:28:20.711Z,18.45
2018-04-23T02:29:30.781Z,18.47
2018-04-23T02:30:40.968Z,18.49
2018-04-23T02:31:51.044Z,18.44
2018-04-23T02:33:01.141Z,18.49
2018-04-23T02:34:11.222Z,18.34
2018-04-23T02:35:21.371Z,18.38
2018-04-23T02:36:31.192Z,18.31
2018-04-23T02:37:41.290Z,18.24
2018-04-23T02:38:51.103Z,18.21
2018-04-23T02:40:01.190Z,18.31
2018-04-23T02:41:11.336Z,18.23
2018-04-23T02:42:21.407Z,18.2
2018-04-23T02:43:31.479Z,18.2
2018-04-23T02:44:41.566Z,18.13
2018-04-23T02:45:51.645Z,18.16
2018-04-23T02:47:01.469Z,18.06
2018-04-23T02:48:11.558Z,18.1
2018-04-23T02:49:21.632Z,18.08
2018-04-23T02:50:31.711Z,18.06
2018-04-23T02:51:41.779Z,18.03
2018-04-23T02:52:51.871Z,18.02
2018-04-23T02:54:01.682Z,18.03
2018-04-23T02:55:11.772Z,17.99
2018-04-23T02:56:21.601Z,18.02
2018-04-23T02:57:31.675Z,18.01
2018-04-23T02:58:41.764Z,17.99
2018-04-23T02:59:51.848Z,17.94
2018-04-23T03:01:02.003Z,17.86
2018-04-23T03:02:12.089Z,17.88
2018-04-23T03:34:06.473Z,14.79
2018-04-23T03:35:16.268Z,14.75
2018-04-23T03:36:26.331Z,14.75
2018-04-23T03:37:36.411Z,14.85
2018-04-23T03:38:46.506Z,14.77
2018-04-23T03:39:56.315Z,14.89
2018-04-23T03:41:06.130Z,14.9
2018-04-23T03:42:15.969Z,15.01
2018-04-23T03:43:26.042Z,15.19
2018-04-23T03:44:35.586Z,15.31
2018-04-23T03:45:45.717Z,15.35
2018-04-23T03:46:55.798Z,15.55
2018-04-23T03:48:05.873Z,15.63
2018-04-23T03:49:15.693Z,15.86
2018-04-23T03:50:25.773Z,15.96
2018-04-23T03:51:35.973Z,16.11
2018-04-23T03:52:45.789Z,16.26
2018-04-23T03:53:55.588Z,16.33
2018-04-23T03:55:05.658Z,16.44
2018-04-23T03:56:15.465Z,16.58
2018-04-23T03:57:25.547Z,16.62
2018-04-23T03:58:35.631Z,16.84
2018-04-23T03:59:45.706Z,16.88
2018-04-23T04:00:55.533Z,16.95
2018-04-23T04:02:05.352Z,17.12
2018-04-23T04:03:15.449Z,17.17
2018-04-23T04:04:25.524Z,17.27
2018-04-23T04:05:35.625Z,17.31
2018-04-23T04:06:45.690Z,17.38
2018-04-23T04:07:55.506Z,17.45
2018-04-23T04:09:05.045Z,17.52
2018-04-23T04:10:15.157Z,17.49
2018-04-23T04:11:24.997Z,17.66
2018-04-23T04:12:35.086Z,17.69
2018-04-23T04:13:45.162Z,17.71
2018-04-23T04:14:55.263Z,17.83
2018-04-23T04:16:05.346Z,17.79
2018-04-23T04:17:15.429Z,17.9
2018-04-23T04:18:25.253Z,18.01
2018-04-23T04:19:35.070Z,18.05
2018-04-23T04:20:45.148Z,18.21
2018-04-23T04:21:55.226Z,18.24
2018-04-23T04:23:05.328Z,18.35
2018-04-23T04:24:15.440Z,18.45
2018-04-23T04:25:25.523Z,18.47
2018-04-23T04:26:35.680Z,18.6
2018-04-23T04:27:45.742Z,18.75
2018-04-23T04:28:55.560Z,18.89
2018-04-23T04:30:05.406Z,19.06
2018-04-23T04:31:15.501Z,19.46
2018-04-23T04:32:25.598Z,19.67
2018-04-23T04:33:35.711Z,19.93
2018-04-23T04:34:45.525Z,20.08
2018-04-23T04:35:55.341Z,20.22
2018-04-23T04:37:05.438Z,20.38
2018-04-23T04:38:15.338Z,20.48
2018-04-23T04:39:25.295Z,20.37
2018-04-23T04:40:35.375Z,20.41
2018-04-23T04:41:44.939Z,20.58
2018-04-23T04:42:55.015Z,20.78
2018-04-23T04:44:04.934Z,20.97
2018-04-23T04:45:15.019Z,20.78
2018-04-23T04:46:25.091Z,20.66
2018-04-23T04:47:34.913Z,20.58
2018-04-23T04:48:44.724Z,20.58
2018-04-23T04:49:54.845Z,20.48
2018-04-23T04:51:04.945Z,20.48
2018-04-23T04:52:14.779Z,20.49
2018-04-23T04:53:24.853Z,20.49
2018-04-23T04:54:34.930Z,20.44
2018-04-23T04:55:44.745Z,20.46
2018-04-23T04:56:54.843Z,20.34
2018-04-23T04:58:04.677Z,20.58
2018-04-23T04:59:14.499Z,20.56
2018-04-23T05:00:24.328Z,20.46
2018-04-23T05:01:34.428Z,20.41
2018-04-23T05:02:44.267Z,20.41
2018-04-23T05:03:54.088Z,20.41
2018-04-23T05:05:04.166Z,20.46
2018-04-23T05:06:13.748Z,20.53
2018-04-23T05:07:23.894Z,20.67
2018-04-23T05:08:33.976Z,20.82
2018-04-23T05:09:43.801Z,21.25
2018-04-23T05:10:53.867Z,21.77
2018-04-23T05:12:03.950Z,22.29
2018-04-23T05:13:13.802Z,22.69
2018-04-23T05:14:23.662Z,22.88
2018-04-23T05:15:33.759Z,22.81
2018-04-23T05:16:43.864Z,22.75
2018-04-23T05:17:53.961Z,23
2018-04-23T05:19:03.831Z,23.44
2018-04-23T05:20:13.908Z,23.66
2018-04-23T05:21:23.762Z,24
2018-04-23T05:22:33.863Z,24.17
2018-04-23T05:23:43.853Z,24.3
2018-04-23T05:24:54.119Z,24.34
2018-04-23T05:26:04.207Z,24.17
2018-04-23T05:27:14.298Z,24.03
2018-04-23T05:28:24.401Z,23.81
2018-04-23T05:29:34.500Z,23.67
2018-04-23T05:30:44.322Z,23.5
2018-04-23T05:31:54.424Z,23.35
2018-04-23T05:33:04.511Z,23.28
2018-04-23T05:34:14.587Z,23.15
2018-04-23T05:35:24.429Z,23.09
2018-04-23T05:36:34.319Z,23.07
2018-04-23T05:37:44.460Z,23.03
2018-04-23T05:38:54.560Z,22.96
2018-04-23T05:40:04.404Z,22.91
2018-04-23T05:41:13.958Z,22.97
2018-04-23T05:42:24.040Z,23.04
2018-04-23T05:43:34.124Z,23.09
2018-04-23T05:44:44.221Z,23.06
2018-04-23T05:45:54.307Z,22.96
2018-04-23T05:47:04.393Z,22.99
2018-04-23T05:48:14.482Z,22.96
2018-04-23T05:49:24.566Z,22.88
2018-04-23T05:50:34.629Z,23.09
2018-04-23T05:51:44.707Z,23.16
2018-04-23T05:52:54.812Z,23.12
2018-04-23T05:54:04.908Z,23.18
2018-04-23T05:55:14.475Z,23.14
2018-04-23T05:56:24.556Z,23.21
2018-04-23T05:57:34.638Z,23.26
2018-04-23T05:58:44.462Z,23.21
2018-04-23T05:59:54.281Z,23.25
2018-04-23T06:01:04.381Z,23.28
2018-04-23T06:02:14.464Z,23.5
2018-04-23T06:03:24.565Z,23.52
2018-04-23T06:04:34.629Z,23.41
2018-04-23T06:05:44.456Z,23.22
2018-04-23T06:06:54.276Z,23.1
2018-04-23T06:08:04.373Z,22.97
2018-04-23T06:09:14.458Z,22.82
2018-04-23T06:10:24.537Z,22.82
2018-04-23T06:11:34.720Z,22.71
2018-04-23T06:12:44.553Z,22.55
2018-04-23T06:13:54.627Z,22.41
2018-04-23T06:15:04.455Z,22.24
2018-04-23T06:16:14.272Z,22.2
2018-04-23T06:17:24.146Z,22.08
2018-04-23T06:18:34.249Z,21.96
2018-04-23T06:19:44.397Z,21.86
2018-04-23T06:20:53.953Z,21.82
2018-04-23T06:22:04.042Z,21.77
2018-04-23T06:23:13.855Z,21.71
2018-04-23T06:24:23.685Z,21.64
2018-04-23T06:25:33.775Z,21.56
2018-04-23T06:26:43.860Z,21.46
2018-04-23T06:27:53.684Z,21.34
2018-04-23T06:29:03.544Z,21.21
2018-04-23T06:30:13.640Z,21.27
2018-04-23T06:31:23.754Z,21.08
2018-04-23T06:32:33.855Z,20.79
2018-04-23T06:33:43.716Z,20.68
2018-04-23T06:34:53.873Z,20.42
2018-04-23T06:36:03.955Z,20.34
2018-04-23T06:37:14.061Z,20.23
2018-04-23T06:38:24.154Z,20.29
2018-04-23T06:39:34.226Z,20.23
2018-04-23T06:40:44.302Z,20.27
2018-04-23T06:41:54.393Z,20.25
2018-04-23T06:43:04.208Z,20.35
2018-04-23T06:44:13.747Z,20.42
2018-04-23T06:45:23.833Z,20.48
2018-04-23T06:46:33.925Z,20.48
2018-04-23T06:47:44.039Z,20.53
2018-04-23T06:48:53.854Z,20.49
2018-04-23T06:50:03.945Z,20.6
2018-04-23T06:51:14.036Z,20.74
2018-04-23T06:52:23.904Z,20.74
2018-04-23T06:53:33.990Z,20.75
2018-04-23T06:54:44.105Z,20.9
2018-04-23T06:55:53.930Z,20.96
2018-04-23T06:57:03.753Z,21.09
2018-04-23T06:58:13.624Z,21.13
2018-04-23T06:59:23.716Z,21.16
2018-04-23T07:00:33.808Z,21.23
2018-04-23T07:01:43.914Z,21.23
2018-04-23T07:02:54.106Z,21.33
2018-04-23T07:04:03.920Z,21.46
2018-04-23T07:05:13.780Z,21.46
2018-04-23T07:06:23.858Z,21.67
2018-04-23T07:07:33.953Z,21.67
2018-04-23T07:08:43.800Z,21.82
2018-04-23T07:09:53.686Z,21.92
2018-04-23T07:11:03.773Z,22.11
2018-04-23T07:12:13.598Z,22.24
2018-04-23T07:13:23.699Z,22.33
2018-04-23T07:14:33.829Z,22.54
2018-04-23T07:15:43.930Z,22.73
2018-04-23T07:16:53.747Z,23
2018-04-23T07:18:03.286Z,23.35
2018-04-23T07:19:13.116Z,23.57
2018-04-23T07:20:23.195Z,23.84
2018-04-23T07:21:33.335Z,23.97
2018-04-23T07:22:43.435Z,24.11
2018-04-23T07:23:53.526Z,24.32
2018-04-23T07:25:03.629Z,24.7
2018-04-23T07:26:13.707Z,24.7
2018-04-23T07:27:23.804Z,24.9
2018-04-23T07:28:33.908Z,25.17
2018-04-23T07:29:43.977Z,25.32
2018-04-23T07:30:54.055Z,25.48
2018-04-23T07:32:04.166Z,25.71
2018-04-23T07:33:14.391Z,25.71
2018-04-23T07:34:24.495Z,25.94
2018-04-23T07:35:34.623Z,26.15
2018-04-23T07:36:44.702Z,26.3
2018-04-23T07:37:54.800Z,26.32
2018-04-23T07:39:04.912Z,26.31
2018-04-23T07:40:15.074Z,26.3
2018-04-23T07:41:25.179Z,26.26
2018-04-23T07:42:35.280Z,26.19
2018-04-23T07:43:45.368Z,26.16
2018-04-23T07:44:54.939Z,26.15
2018-04-23T07:46:05.018Z,26.16
2018-04-23T07:47:14.863Z,26.15
2018-04-23T07:48:24.966Z,26.23
2018-04-23T07:49:35.073Z,26.44
2018-04-23T07:50:45.201Z,26.42
2018-04-23T07:51:54.770Z,26.61
2018-04-23T07:53:04.874Z,26.63
2018-04-23T07:54:15.208Z,26.74
2018-04-23T07:55:25.040Z,26.78
2018-04-23T07:56:35.226Z,26.9
2018-04-23T07:57:45.327Z,26.94
2018-04-23T07:58:55.503Z,27.11
2018-04-23T08:00:05.495Z,27.33
2018-04-23T08:01:15.329Z,27.57
2018-04-23T08:02:25.443Z,27.68
2018-04-23T08:03:35.531Z,28.03
2018-04-23T08:04:45.361Z,28.12
2018-04-23T08:05:56.013Z,28.2
2018-04-23T08:07:06.430Z,28.33
2018-04-23T08:08:16.725Z,28.43
2018-04-23T08:09:26.584Z,28.6
2018-04-23T08:10:37.478Z,28.65
2018-04-23T08:11:48.150Z,28.83
2018-04-23T08:12:57.993Z,28.88
2018-04-23T08:14:08.157Z,29.03
2018-04-23T08:15:18.266Z,29.28
2018-04-23T08:16:28.387Z,29.3
2018-04-23T08:17:38.521Z,29.32
2018-04-23T08:18:48.621Z,29.45
2018-04-23T08:19:58.505Z,29.48
2018-04-23T08:21:08.849Z,29.51
2018-04-23T08:22:18.958Z,29.63
2018-04-23T08:23:29.058Z,29.66
2018-04-23T08:24:38.950Z,29.65
2018-04-23T08:25:49.127Z,29.7
2018-04-23T08:26:58.959Z,29.69
2018-04-23T08:28:08.818Z,29.77
2018-04-23T08:29:18.934Z,29.75
2018-04-23T08:30:29.038Z,29.79
2018-04-23T08:31:39.354Z,29.85
2018-04-23T08:32:49.253Z,29.89
2018-04-23T08:33:59.363Z,29.94
2018-04-23T08:35:09.474Z,29.97
2018-04-23T08:36:19.575Z,29.98
2018-04-23T08:37:29.820Z,30.09
2018-04-23T08:38:40.082Z,30.03
2018-04-23T08:39:50.182Z,30.1
2018-04-23T08:41:00.297Z,30.04
2018-04-23T08:42:10.413Z,30.07
2018-04-23T08:43:20.525Z,30.09
2018-04-23T08:44:30.629Z,30.13
2018-04-23T08:45:40.738Z,30.13
2018-04-23T08:47:05.485Z,30.18
2018-04-23T08:48:15.743Z,30.24
2018-04-23T08:49:25.858Z,30.25
2018-04-23T08:50:36.061Z,30.22
2018-04-23T08:51:46.166Z,30.25
2018-04-23T08:52:56.267Z,30.18
2018-04-23T08:54:06.374Z,30.19
2018-04-23T08:55:16.490Z,30.26
2018-04-23T08:56:26.342Z,30.26
2018-04-23T08:57:36.429Z,30.29
2018-04-23T08:58:46.599Z,30.31
2018-04-23T08:59:56.758Z,30.51
2018-04-23T09:01:06.680Z,30.45
2018-04-23T09:02:16.779Z,30.59
2018-04-23T09:03:27.092Z,30.59
2018-04-23T09:04:37.482Z,30.69
2018-04-23T09:05:47.580Z,30.73
2018-04-23T09:06:57.419Z,30.85
2018-04-23T09:08:07.550Z,30.78
2018-04-23T09:09:17.390Z,30.93
2018-04-23T09:10:27.226Z,30.91
2018-04-23T09:11:37.080Z,30.96
2018-04-23T09:12:47.166Z,30.93
2018-04-23T09:13:57.271Z,30.88
2018-04-23T09:15:07.099Z,30.93
2018-04-23T09:16:17.316Z,30.91
2018-04-23T09:17:27.419Z,31.06
2018-04-23T09:18:37.521Z,31.06
2018-04-23T09:19:47.360Z,31.21
2018-04-23T09:20:57.463Z,31.19
2018-04-23T09:22:07.566Z,31.12
2018-04-23T09:23:17.683Z,31.12
2018-04-23T09:24:27.781Z,31.28
2018-04-23T09:25:37.870Z,31.25
2018-04-23T09:26:47.420Z,31.28
2018-04-23T09:27:57.509Z,31.31
2018-04-23T09:29:07.588Z,31.38
2018-04-23T09:30:17.690Z,31.5
2018-04-23T09:31:27.792Z,31.44
2018-04-23T09:32:37.927Z,31.43
2018-04-23T09:33:48.026Z,31.5
2018-04-23T09:34:57.923Z,31.55
2018-04-23T09:36:08.030Z,31.59
2018-04-23T09:37:17.597Z,31.7
2018-04-23T09:38:27.699Z,31.9
2018-04-23T09:39:37.592Z,31.93
2018-04-23T09:40:47.711Z,32.12
2018-04-23T09:41:58.511Z,32.27
2018-04-23T09:43:08.609Z,32.38
2018-04-23T09:44:18.709Z,32.46
2018-04-23T09:45:29.024Z,32.56
2018-04-23T09:46:39.135Z,32.67
2018-04-23T09:47:49.008Z,32.8
2018-04-23T09:48:59.128Z,32.81
2018-04-23T09:50:09.338Z,32.93
2018-04-23T09:51:19.293Z,32.96
2018-04-23T09:52:29.396Z,32.93
2018-04-23T09:53:39.222Z,32.93
2018-04-23T09:54:49.303Z,33.03
2018-04-23T09:55:59.595Z,33.01
2018-04-23T09:57:09.225Z,33.12
2018-04-23T09:58:19.350Z,33.17
2018-04-23T09:59:29.439Z,33.13
2018-04-23T10:00:39.543Z,33.26
2018-04-23T10:01:49.650Z,33.39
2018-04-23T10:02:59.778Z,33.52
2018-04-23T10:04:09.608Z,33.62
2018-04-23T10:05:19.729Z,33.65
2018-04-23T10:06:29.573Z,33.73
2018-04-23T10:07:39.660Z,33.87
2018-04-23T10:08:50.074Z,33.8
2018-04-23T10:09:59.927Z,33.9
2018-04-23T10:11:09.768Z,34
2018-04-23T10:12:19.703Z,34.05
2018-04-23T10:13:29.555Z,34.14
2018-04-23T10:14:39.741Z,34.08
2018-04-23T10:15:49.839Z,34.08
2018-04-23T10:16:59.404Z,34.05
2018-04-23T10:18:09.502Z,34.03
2018-04-23T10:19:19.590Z,34.03
2018-04-23T10:20:29.422Z,33.92
2018-04-23T10:21:39.756Z,34
2018-04-23T10:22:49.873Z,34.06
2018-04-23T10:23:59.969Z,34.11
2018-04-23T10:25:10.076Z,34.27
2018-04-23T10:26:20.224Z,34.22
2018-04-23T10:27:30.057Z,34.24
2018-04-23T10:28:40.159Z,34.15
2018-04-23T10:29:50.261Z,34.18
2018-04-23T10:31:00.373Z,34.26
2018-04-23T10:32:10.549Z,34.22
2018-04-23T10:33:20.667Z,34.24
2018-04-23T10:34:30.759Z,34.14
2018-04-23T10:35:41.122Z,34.19
2018-04-23T10:36:50.707Z,34.21
2018-04-23T10:38:00.276Z,34.19
2018-04-23T10:39:10.376Z,34.17
2018-04-23T10:40:20.466Z,34.29
2018-04-23T10:41:30.565Z,34.24
2018-04-23T10:42:40.716Z,34.3
2018-04-23T10:43:50.816Z,34.36
2018-04-23T10:45:00.652Z,34.34
2018-04-23T10:46:10.764Z,34.33
2018-04-23T10:47:20.870Z,34.3
2018-04-23T10:48:31.106Z,34.19
2018-04-23T10:49:41.202Z,34.19
2018-04-23T10:50:51.314Z,34.41
2018-04-23T10:52:01.410Z,34.36
2018-04-23T10:53:11.530Z,34.4
2018-04-23T10:54:21.689Z,34.3
2018-04-23T10:55:31.777Z,34.41
2018-04-23T10:56:41.896Z,34.36
2018-04-23T10:57:51.977Z,34.34
2018-04-23T10:59:01.816Z,34.4
2018-04-23T11:00:12.002Z,34.45
2018-04-23T11:01:21.865Z,34.45
2018-04-23T11:02:31.954Z,34.54
2018-04-23T11:03:42.073Z,34.39
2018-04-23T11:04:52.181Z,34.48
2018-04-23T11:06:02.294Z,34.54
2018-04-23T11:07:12.412Z,34.63
2018-04-23T11:08:22.502Z,34.72
2018-04-23T11:09:32.335Z,34.89
2018-04-23T11:10:42.501Z,34.91
2018-04-23T11:11:52.700Z,35.27
2018-04-23T11:13:02.800Z,35.4
2018-04-23T11:14:12.915Z,35.55
2018-04-23T11:15:22.508Z,35.65
2018-04-23T11:16:32.357Z,35.87
2018-04-23T11:17:42.460Z,36.09
2018-04-23T11:18:52.037Z,36.28
2018-04-23T11:20:02.133Z,36.34
2018-04-23T11:21:12.217Z,36.37
2018-04-23T11:22:22.322Z,36.34
2018-04-23T11:23:32.259Z,36.41
2018-04-23T11:24:42.364Z,36.34
2018-04-23T11:25:52.551Z,36.43
2018-04-23T11:27:02.659Z,36.46
2018-04-23T11:28:12.767Z,36.37
2018-04-23T11:29:22.942Z,36.33
2018-04-23T11:30:33.045Z,36.22
2018-04-23T11:31:43.164Z,36.08
2018-04-23T11:32:53.277Z,36.09
2018-04-23T11:34:03.375Z,36.06
2018-04-23T11:35:13.612Z,36.06
2018-04-23T11:36:23.454Z,36.18
2018-04-23T11:37:33.546Z,36.21
2018-04-23T11:38:43.692Z,36.34
2018-04-23T11:39:53.924Z,36.33
2018-04-23T11:41:03.832Z,36.39
2018-04-23T11:42:13.935Z,36.4
2018-04-23T11:43:23.804Z,36.46
2018-04-23T11:44:33.635Z,36.43
2018-04-23T11:45:43.710Z,36.36
2018-04-23T11:46:53.871Z,36.25
2018-04-23T11:48:03.954Z,36.32
2018-04-23T11:49:14.061Z,36.21
2018-04-23T11:50:23.919Z,36.32
2018-04-23T11:51:34.034Z,36.33
2018-04-23T11:52:43.915Z,36.3
2018-04-23T11:53:53.741Z,36.26
2018-04-23T11:55:03.590Z,36.36
2018-04-23T11:56:13.683Z,36.32
2018-04-23T11:57:23.794Z,36.21
2018-04-23T11:58:33.924Z,36.21
2018-04-23T11:59:43.512Z,36.09
2018-04-23T12:00:53.352Z,36.06
2018-04-23T12:02:03.699Z,36.06
2018-04-23T12:03:13.822Z,36.05
2018-04-23T12:04:23.753Z,36.26
2018-04-23T12:05:33.885Z,36.32
2018-04-23T12:06:43.982Z,36.49
2018-04-23T12:07:54.094Z,36.58
2018-04-23T12:09:03.959Z,36.59
2018-04-23T12:10:13.852Z,36.55
2018-04-23T12:11:23.959Z,36.52
2018-04-23T12:12:33.801Z,36.49
2018-04-23T12:13:43.923Z,36.53
2018-04-23T12:14:54.243Z,36.49
2018-04-23T12:16:04.436Z,36.49
2018-04-23T12:17:14.627Z,36.51
2018-04-23T12:18:24.727Z,36.47
2018-04-23T12:19:34.562Z,36.53
2018-04-23T12:20:44.388Z,36.52
2018-04-23T12:21:54.486Z,36.52
2018-04-23T12:23:04.602Z,36.41
2018-04-23T12:24:14.456Z,36.37
2018-04-23T12:25:24.310Z,36.25
2018-04-23T12:26:34.405Z,36.21
2018-04-23T12:27:44.452Z,36.09
2018-04-23T12:28:54.023Z,36.09
2018-04-23T12:30:04.127Z,36.09
2018-04-23T12:31:14.226Z,35.94
2018-04-23T12:32:24.424Z,35.65
2018-04-23T12:33:34.535Z,35.49
2018-04-23T12:34:44.381Z,35.49
2018-04-23T12:35:54.479Z,35.57
2018-04-23T12:37:04.585Z,35.61
2018-04-23T12:38:14.437Z,35.79
2018-04-23T12:39:24.801Z,36.01
2018-04-23T12:40:34.897Z,35.98
2018-04-23T12:41:44.983Z,35.94
2018-04-23T12:42:55.083Z,35.92
2018-04-23T12:44:05.235Z,35.94
2018-04-23T12:45:15.402Z,35.6
2018-04-23T12:46:25.507Z,35.43
2018-04-23T12:47:35.615Z,35.53
2018-04-23T12:48:45.454Z,35.64
2018-04-23T12:49:55.286Z,35.6
2018-04-23T12:51:05.606Z,35.62
2018-04-23T12:52:15.811Z,35.79
2018-04-23T12:53:26.165Z,35.96
2018-04-23T12:54:36.273Z,36.17
2018-04-23T12:55:46.366Z,36.21
2018-04-23T12:56:56.519Z,35.96
2018-04-23T12:58:06.628Z,35.74
2018-04-23T12:59:16.949Z,35.74
2018-04-23T13:00:27.270Z,35.49
2018-04-23T13:01:37.423Z,35.42
2018-04-23T13:02:47.591Z,35.5
2018-04-23T13:03:57.429Z,35.47
2018-04-23T13:05:07.531Z,35.47
2018-04-23T13:06:17.795Z,35.61
2018-04-23T13:07:27.643Z,35.62
2018-04-23T13:08:37.800Z,35.84
2018-04-23T13:09:47.898Z,35.76
2018-04-23T13:10:57.732Z,35.67
2018-04-23T13:12:07.838Z,35.67
2018-04-23T13:13:18.470Z,35.67
2018-04-23T13:14:28.575Z,35.72
2018-04-23T13:15:38.688Z,35.58
2018-04-23T13:16:48.792Z,35.55
2018-04-23T13:17:58.637Z,35.58
2018-04-23T13:19:08.769Z,35.57
2018-04-23T13:20:18.647Z,35.42
2018-04-23T13:21:28.806Z,35.43
2018-04-23T13:22:38.916Z,35.4
2018-04-23T13:23:49.017Z,35.26
2018-04-23T13:24:59.231Z,35.28
2018-04-23T13:26:09.125Z,35.13
2018-04-23T13:27:18.955Z,35.05
2018-04-23T13:28:29.080Z,35.15
2018-04-23T13:29:38.933Z,35.4
2018-04-23T13:30:49.041Z,35.65
2018-04-23T13:31:59.166Z,35.92
2018-04-23T13:33:08.995Z,36.05
2018-04-23T13:34:19.098Z,36.21
2018-04-23T13:35:29.198Z,36.21
2018-04-23T13:36:39.109Z,36.24
2018-04-23T13:37:49.056Z,36.33
2018-04-23T13:38:59.393Z,36.19
2018-04-23T13:40:09.255Z,36.17
2018-04-23T13:41:19.360Z,35.94
2018-04-23T13:42:29.661Z,35.87
2018-04-23T13:43:40.028Z,35.87
2018-04-23T13:44:49.984Z,35.69
2018-04-23T13:46:00.080Z,35.64
2018-04-23T13:47:09.935Z,35.61
2018-04-23T13:48:20.036Z,35.53
2018-04-23T13:49:30.140Z,35.52
2018-04-23T13:50:40.243Z,35.45
2018-04-23T13:51:50.353Z,35.4
2018-04-23T13:53:01.795Z,35.38
2018-04-23T13:54:13.283Z,35.46
2018-04-23T13:55:24.533Z,35.34
2018-04-23T13:56:35.684Z,35.38
2018-04-23T13:57:46.597Z,35.43
2018-04-23T13:58:56.714Z,35.42
2018-04-23T14:00:06.550Z,35.46
2018-04-23T14:01:16.714Z,35.39
2018-04-23T14:02:26.810Z,35.3
2018-04-23T14:03:37.173Z,35.34
2018-04-23T14:04:47.260Z,35.3
2018-04-23T14:05:57.316Z,35.33
2018-04-23T14:07:07.784Z,35.28
2018-04-23T14:08:17.881Z,35.3
2018-04-23T14:09:27.723Z,35.28
2018-04-23T14:10:37.562Z,35.06
2018-04-23T14:11:47.392Z,34.96
2018-04-23T14:12:57.538Z,34.91
2018-04-23T14:14:07.114Z,34.97
2018-04-23T14:15:17.230Z,34.97
2018-04-23T14:16:27.067Z,35.06
2018-04-23T14:17:37.235Z,34.97
2018-04-23T14:18:47.550Z,35.01
2018-04-23T14:19:57.662Z,34.89
2018-04-23T14:21:07.785Z,34.89
2018-04-23T14:22:17.908Z,34.93
2018-04-23T14:23:28.037Z,34.93
2018-04-23T14:24:38.190Z,34.84
2018-04-23T14:25:48.056Z,34.83
2018-04-23T14:26:58.176Z,34.67
2018-04-23T14:28:08.270Z,34.77
2018-04-23T14:29:18.402Z,34.72
2018-04-23T14:30:28.556Z,34.69
2018-04-23T14:31:38.912Z,34.67
2018-04-23T14:32:49.023Z,34.61
2018-04-23T14:33:59.134Z,34.43
2018-04-23T14:35:09.240Z,34.17
2018-04-23T14:36:19.368Z,34
2018-04-23T14:37:29.489Z,33.92
2018-04-23T14:38:39.331Z,33.95
2018-04-23T14:39:49.426Z,34.06
2018-04-23T14:40:59.528Z,34.11
2018-04-23T14:42:09.661Z,34.12
2018-04-23T14:43:19.751Z,34.19
2018-04-23T14:44:30.077Z,34.06
2018-04-23T14:45:39.928Z,34
2018-04-23T14:46:50.034Z,34.1
2018-04-23T14:48:00.215Z,34.05
2018-04-23T14:49:10.350Z,34
2018-04-23T14:50:20.443Z,33.96
2018-04-23T14:51:30.551Z,34.02
2018-04-23T14:52:40.396Z,34.06
2018-04-23T14:53:49.973Z,33.97
2018-04-23T14:55:00.147Z,33.95
2018-04-23T14:56:09.998Z,33.89
2018-04-23T14:57:20.110Z,33.84
2018-04-23T14:58:30.216Z,33.77
2018-04-23T14:59:40.315Z,33.69
2018-04-23T15:00:50.420Z,33.71
2018-04-23T15:02:00.594Z,33.74
2018-04-23T15:03:10.706Z,33.69
2018-04-23T15:04:20.275Z,33.68
2018-04-23T15:05:30.401Z,33.63
2018-04-23T15:06:39.992Z,33.58
2018-04-23T15:07:50.175Z,33.55
2018-04-23T15:09:00.281Z,33.48
2018-04-23T15:10:10.394Z,33.52
2018-04-23T15:11:20.518Z,33.47
2018-04-23T15:12:30.649Z,33.46
2018-04-23T15:13:40.756Z,33.48
2018-04-23T15:14:50.869Z,33.5
2018-04-23T15:16:00.970Z,33.53
2018-04-23T15:17:11.090Z,33.48
2018-04-23T15:18:21.184Z,33.46
2018-04-23T15:19:31.350Z,33.39
2018-04-23T15:20:41.458Z,33.32
2018-04-23T15:21:51.795Z,33.31
2018-04-23T15:23:01.910Z,33.29
2018-04-23T15:24:12.012Z,33.24
2018-04-23T15:25:21.856Z,33.2
2018-04-23T15:26:31.967Z,33.31
2018-04-23T15:27:41.805Z,33.29
2018-04-23T15:28:51.364Z,33.23
2018-04-23T15:30:01.190Z,33.31
2018-04-23T15:31:11.319Z,33.18
2018-04-23T15:32:21.134Z,33.23
2018-04-23T15:33:31.244Z,33.17
2018-04-23T15:34:41.395Z,33.24
2018-04-23T15:35:51.559Z,33.24